Flight Track Log - Related Links

Times and Time Zones

All times are in EDT time to prevent confusion due to time zone crossing. See the RPA3161 flight status page for this flight to view local times or setup timezone preferences in your user account.

Time Position Orientation Groundspeed Altitude Reporting Facility
EDT Latitude Longitude Course Direction KTS MPH feet Rate Location/Type
Fri 01:00:43 PM 44.2381 -73.1933 198° South 284 327 9,700  Level Boston Center
Fri 01:01:42 PM 44.1525 -73.2039 185° South 300 345 11,800 2,550 Climbing Boston Center
Fri 01:02:43 PM 44.0503 -73.2200 186° South 331 381 14,800 2,579 Climbing Boston Center
Fri 01:03:00 PM 43.7690 -73.4055 195° South  Level FlightAware Approximate
Fri 01:03:43 PM 43.9564 -73.2619 198° South 343 395 17,000  Level Boston Center
Fri 01:04:00 PM 43.6692 -73.4428 195° South  Level FlightAware Approximate
Fri 01:04:42 PM 43.8622 -73.3067 199° South 358 412 19,300  Level Boston Center
Fri 01:05:00 PM 43.5708 -73.4861 198° South  Level FlightAware Approximate
Fri 01:05:43 PM 43.7639 -73.3514 198° South 358 412 21,300  Level Boston Center
Fri 01:06:00 PM 43.4726 -73.5306 198° South  Level FlightAware Approximate
Fri 01:06:43 PM 43.6636 -73.3928 197° South 384 442 23,500  Level Boston Center
Fri 01:07:54 PM 43.5569 -73.4428 199° South 389 448 25,300 1,237 Climbing Boston Center
Fri 01:08:54 PM 43.4292 -73.4978 197° South 401 461 26,200 1,050 Climbing Boston Center
Fri 01:09:54 PM 43.3203 -73.5475 198° South 406 467 27,400 1,150 Climbing Boston Center
Fri 01:10:54 PM 43.2072 -73.5994 199° South 417 480 28,500 992 Climbing Boston Center
Fri 01:11:55 PM 43.1047 -73.6458 198° South 431 496 29,400 744 Climbing Boston Center
Fri 01:12:55 PM 42.9875 -73.7003 199° South 444 511 30,000 303 Climbing Boston Center
Fri 01:13:54 PM 42.8639 -73.7544 198° South 454 522 30,000  Level Boston Center
Fri 01:14:54 PM 42.7425 -73.8000 195° South 454 522 30,000  Level Boston Center
Fri 01:15:55 PM 42.6114 -73.7858 175° South 460 529 30,000  Level Boston Center
Fri 01:16:54 PM 42.4886 -73.7689 174° South 455 524 30,000  Level Boston Center
Fri 01:17:54 PM 42.3575 -73.7494 174° South 462 532 30,000  Level Boston Center
Fri 01:18:55 PM 42.2283 -73.7297 174° South 468 539 30,000  Level Boston Center
Fri 01:19:55 PM 42.1036 -73.7078 173° South 468 539 30,000  Level Boston Center
Fri 01:20:54 PM 41.9747 -73.6911 175° South 466 536 30,000  Level Boston Center
Fri 01:21:54 PM 41.8478 -73.6719 174° South 466 536 30,000  Level Boston Center
Fri 01:22:55 PM 41.7208 -73.6528 174° South 466 536 30,000  Level Boston Center
Fri 01:24:26 PM 41.5231 -73.6169 172° South 453 521 30,000  Level New York Center
Fri 01:25:27 PM 41.3964 -73.6006 174° South 453 521 30,000  Level New York Center
Fri 01:26:25 PM 41.2867 -73.6619 203° Southwest 424 488 30,000  Level New York Center
Fri 01:27:26 PM 41.2064 -73.7853 229° Southwest 414 476 30,000  Level New York Center
Fri 01:28:26 PM 41.1283 -73.9031 229° Southwest 414 476 30,000  Level New York Center
Fri 01:29:27 PM 41.0481 -74.0231 228° Southwest 428 493 30,000  Level New York Center
Fri 01:30:25 PM 40.9719 -74.1403 229° Southwest 433 498 30,000  Level New York Center
Fri 01:31:25 PM 40.8958 -74.2464 227° Southwest 438 504 30,000 -850 Level New York Center
Fri 01:32:25 PM 40.8153 -74.3631 228° Southwest 438 504 28,300 -992 Descending New York Center
Fri 01:33:26 PM 40.7431 -74.4797 231° Southwest 433 498 28,000 -694 Descending New York Center
Fri 01:34:26 PM 40.6728 -74.5936 231° Southwest 417 480 26,900 -1,289 Descending New York Center
Fri 01:35:27 PM 40.6042 -74.7100 232° Southwest 412 474 25,400 -958 Descending New York Center
Fri 01:36:25 PM 40.5339 -74.8150 229° Southwest 406 467 25,000 -203 Descending New York Center
Fri 01:37:25 PM 40.4572 -74.9225 227° Southwest 400 460 25,000 -400 Level New York Center
Fri 01:38:25 PM 40.3850 -75.0244 227° Southwest 400 460 24,200 -1,091 Descending New York Center
Fri 01:39:26 PM 40.3125 -75.1233 226° Southwest 400 460 22,800 -1,082 Descending New York Center
Fri 01:40:27 PM 40.2442 -75.2222 228° Southwest 388 447 22,000 -403 Descending New York Center
Fri 01:41:25 PM 40.1736 -75.3239 228° Southwest 383 441 22,000  Level New York Center
Fri 01:42:25 PM 40.1053 -75.4197 227° Southwest 378 435 22,000  Level New York Center
Fri 01:43:26 PM 40.0386 -75.5239 230° Southwest 378 435 22,000  Level New York Center
Fri 01:44:26 PM 39.9697 -75.6300 230° Southwest 378 435 22,000  Level New York Center
Fri 01:45:27 PM 39.9028 -75.7364 231° Southwest 389 448 22,000  Level New York Center
Fri 01:46:25 PM 39.8336 -75.8425 230° Southwest 389 448 22,000 -202 Level New York Center
Fri 01:47:26 PM 39.7642 -75.9508 230° Southwest 389 448 21,600 -1,339 Descending New York Center
Fri 01:48:26 PM 39.6972 -76.0511 229° Southwest 389 448 19,300 -2,033 Descending New York Center
Fri 01:49:27 PM 39.6303 -76.1486 228° Southwest 381 438 17,500 -2,082 Descending New York Center
Fri 01:50:53 PM 39.5333 -76.3000 230° Southwest 343 395 14,200 -2,137 Descending Potomac TRACON
Fri 01:51:53 PM 39.4667 -76.3833 224° Southwest 339 390 12,300 -1,091 Descending Potomac TRACON
Fri 01:52:54 PM 39.4000 -76.4667 224° Southwest 332 382 12,000 -149 Descending Potomac TRACON
Fri 01:53:54 PM 39.3167 -76.5333 212° Southwest 335 386 12,000 -250 Level Potomac TRACON
Fri 01:54:54 PM 39.2500 -76.6000 218° Southwest 324 373 11,500 -1,000 Descending Potomac TRACON
Fri 01:55:54 PM 39.1667 -76.6667 212° Southwest 305 351 10,000 -783 Descending Potomac TRACON
Fri 01:56:49 PM 39.1167 -76.7167 218° Southwest 290 334 10,000 -365 Level Potomac TRACON
Fri 01:57:49 PM 39.0667 -76.8000 232° Southwest 287 330 9,300 -1,300 Descending Potomac TRACON
Fri 01:58:49 PM 39.0000 -76.8667 218° Southwest 283 326 7,400 -1,636 Descending Potomac TRACON
Fri 01:59:50 PM 38.9667 -76.9500 243° Southwest 278 320 6,000 -689 Descending Potomac TRACON
Fri 02:00:51 PM 38.9833 -77.0333 284° West 235 270 6,000 -694 Level Potomac TRACON
Fri 02:01:51 PM 39.0333 -77.1000 314° West 228 262 4,600 -1,350 Descending Potomac TRACON
Fri 02:02:51 PM 39.0333 -77.1667 270° West 223 257 3,300 -800 Descending Potomac TRACON
Fri 02:03:51 PM 39.0000 -77.2000 218° Southwest 182 209 3,000 -198 Descending Potomac TRACON
Fri 02:04:52 PM 38.9667 -77.1500 131° Southeast 168 193 2,900 -98 Descending Potomac TRACON

Login

Don't have an account? Register now (free) for customized features, flight alerts, and more!